Time;durP1;ratioP1;P1;durP2;ratioP2;P2;SDS_P1;SDS_P2;PMS_P1;PMS_P2;Temp;Humidity;BMP_temperature;BMP_pressure;BME280_temperature;BME280_humidity;BME280_pressure;Samples;Min_cycle;Max_cycle;Signal;HPM_P1;HPM_P2
2022/03/12 00:01:58;;;;;;;;;;;;;;;8.64;33.08;101076.16;5017391;28;20313;-80
2022/03/12 00:04:24;;;;;;;;;;;;;;;8.62;34.21;101070.13;5032985;28;19948;-80
2022/03/12 00:06:49;;;;;;;;;;;;;;;8.78;31.98;101075.16;5014711;28;19992;-80
2022/03/12 00:09:14;;;;;;;;;;;;;;;8.71;32.46;101073.47;5015813;28;20378;-79
2022/03/12 00:11:49;;;;;;;;;;;;;;;8.73;31.75;101060.53;5024606;28;20438;-76
2022/03/12 00:14:15;;;;;;;;;;;;;;;8.70;33.37;101071.78;5025845;28;19991;-75
2022/03/12 00:16:41;;;;;;;;;;;;;;;8.64;33.74;101068.38;5018352;28;20134;-79
2022/03/12 00:19:10;;;;;;;;;;;;;;;8.77;32.76;101070.00;5022025;28;19985;-80
2022/03/12 00:21:36;;;;;;;;;;;;;;;8.85;32.01;101072.50;5033918;28;19929;-75
2022/03/12 00:24:03;;;;;;;;;;;;;;;8.93;31.71;101062.94;5012429;28;19953;-75
2022/03/12 00:26:29;;;;;;;;;;;;;;;8.79;31.85;101070.84;5010898;28;19976;-75
2022/03/12 00:28:54;;;;;;;;;;;;;;;8.72;32.89;101071.75;5020095;28;19925;-75
2022/03/12 00:31:20;;;;;;;;;;;;;;;9.00;30.84;101068.06;5019976;28;19920;-78
2022/03/12 00:33:45;;;;;;;;;;;;;;;8.77;31.87;101078.59;5010884;28;20402;-80
2022/03/12 00:36:18;;;;;;;;;;;;;;;9.08;30.74;101074.00;5014474;28;19917;-80
2022/03/12 00:38:47;;;;;;;;;;;;;;;8.93;31.28;101076.75;5005093;28;19929;-80
2022/03/12 00:41:13;;;;;;;;;;;;;;;9.19;38.35;101082.53;5018531;28;19926;-79
2022/03/12 00:43:38;;;;;;;;;;;;;;;9.33;36.64;101075.44;5019942;28;20374;-75
2022/03/12 00:46:07;;;;;;;;;;;;;;;9.11;29.62;101071.38;5015836;28;19932;-75
2022/03/12 00:48:33;;;;;;;;;;;;;;;9.27;34.87;101075.53;5032874;28;19944;-77
2022/03/12 00:50:58;;;;;;;;;;;;;;;9.42;29.46;101065.88;5034944;28;19929;-80
2022/03/12 00:53:23;;;;;;;;;;;;;;;9.35;28.41;101071.13;5038939;28;19988;-79
2022/03/12 00:55:49;;;;;;;;;;;;;;;9.44;29.91;101075.34;5034457;28;20404;-79
2022/03/12 00:58:14;;;;;;;;;;;;;;;9.58;30.05;101073.44;5030610;28;19925;-79
2022/03/12 01:00:39;;;;;;;;;;;;;;;9.55;31.95;101083.84;5036130;28;19922;-80
2022/03/12 01:03:05;;;;;;;;;;;;;;;9.84;40.16;101092.13;5035080;28;20332;-80
2022/03/12 01:05:48;;;;;;;;;;;;;;;10.02;39.50;101083.28;5043189;28;20443;-80
2022/03/12 01:08:14;;;;;;;;;;;;;;;9.82;29.36;101083.53;5035927;28;19956;-75
2022/03/12 01:10:40;;;;;;;;;;;;;;;9.97;37.67;101092.88;5040518;28;19963;-79
2022/03/12 01:13:05;;;;;;;;;;;;;;;9.95;36.21;101086.84;5034523;28;20342;-79
2022/03/12 01:15:32;;;;;;;;;;;;;;;9.97;33.15;101090.28;5049735;28;19928;-79
2022/03/12 01:17:57;;;;;;;;;;;;;;;9.76;29.13;101081.00;5036977;28;19956;-80
2022/03/12 01:20:23;;;;;;;;;;;;;;;9.83;37.05;101092.16;5031325;28;19952;-80
2022/03/12 01:22:48;;;;;;;;;;;;;;;9.91;32.79;101092.94;5033842;28;20032;-80
2022/03/12 01:25:13;;;;;;;;;;;;;;;9.87;30.43;101099.88;5032988;28;19953;-79
2022/03/12 01:27:39;;;;;;;;;;;;;;;10.12;39.21;101100.47;5034947;28;19975;-79
2022/03/12 01:30:06;;;;;;;;;;;;;;;10.14;38.74;101103.00;5032598;28;19921;-79
2022/03/12 01:32:31;;;;;;;;;;;;;;;9.98;29.80;101094.59;5032239;28;19922;-79
2022/03/12 01:34:56;;;;;;;;;;;;;;;9.99;37.01;101103.25;5035983;28;19927;-80
2022/03/12 01:37:22;;;;;;;;;;;;;;;9.97;28.80;101095.47;5029678;28;19921;-80
2022/03/12 01:39:47;;;;;;;;;;;;;;;9.64;27.74;101101.03;5036995;28;19928;-80
2022/03/12 01:42:14;;;;;;;;;;;;;;;9.84;32.03;101099.06;5024112;28;19925;-76
2022/03/12 01:44:39;;;;;;;;;;;;;;;9.62;28.11;101095.03;5029378;28;19954;-75
2022/03/12 01:47:09;;;;;;;;;;;;;;;9.53;29.01;101102.91;5013673;28;19917;-80
2022/03/12 01:49:35;;;;;;;;;;;;;;;9.55;29.79;101103.75;5017222;28;20332;-79
2022/03/12 01:52:03;;;;;;;;;;;;;;;9.68;31.13;101106.19;5013287;28;20003;-80
2022/03/12 01:54:29;;;;;;;;;;;;;;;9.75;28.60;101101.78;5016638;28;20348;-79
2022/03/12 01:56:56;;;;;;;;;;;;;;;9.86;30.67;101108.56;5016172;28;20376;-79
2022/03/12 01:59:22;;;;;;;;;;;;;;;9.85;31.94;101105.97;5020596;28;20000;-80
2022/03/12 02:01:52;;;;;;;;;;;;;;;9.84;38.58;101110.28;5008457;28;20063;-80
2022/03/12 02:04:18;;;;;;;;;;;;;;;9.55;29.47;101098.56;5011221;28;19917;-80
2022/03/12 02:06:45;;;;;;;;;;;;;;;9.70;28.59;101104.44;5025997;28;19949;-80
2022/03/12 02:09:14;;;;;;;;;;;;;;;9.64;28.60;101103.63;5008319;28;19924;-80
2022/03/12 02:11:39;;;;;;;;;;;;;;;9.51;29.11;101104.66;5023613;28;20285;-75
2022/03/12 02:14:09;;;;;;;;;;;;;;;9.54;28.33;101099.44;5017931;28;19917;-75
2022/03/12 02:16:35;;;;;;;;;;;;;;;9.56;29.17;101108.94;5013570;28;19996;-78
2022/03/12 02:19:00;;;;;;;;;;;;;;;9.79;32.20;101119.00;5010315;28;20052;-79
2022/03/12 02:21:30;;;;;;;;;;;;;;;9.80;36.10;101107.78;5009128;28;19927;-76
2022/03/12 02:23:56;;;;;;;;;;;;;;;9.65;31.55;101118.34;5009090;28;19992;-80
2022/03/12 02:26:21;;;;;;;;;;;;;;;9.80;36.35;101132.00;5015926;28;19964;-79
2022/03/12 02:28:46;;;;;;;;;;;;;;;9.49;27.97;101129.75;5012035;28;19921;-79
2022/03/12 02:31:13;;;;;;;;;;;;;;;9.49;28.65;101138.38;5014093;28;19925;-79
2022/03/12 02:33:38;;;;;;;;;;;;;;;9.61;35.75;101147.75;5014642;28;19994;-79
2022/03/12 02:36:05;;;;;;;;;;;;;;;9.66;34.49;101139.06;5010497;28;20385;-75
2022/03/12 02:38:31;;;;;;;;;;;;;;;9.58;28.83;101140.88;5015117;28;20413;-76
2022/03/12 02:40:56;;;;;;;;;;;;;;;9.56;30.05;101146.97;5010499;28;19918;-76
2022/03/12 02:43:26;;;;;;;;;;;;;;;9.44;28.97;101142.75;5016283;28;19917;-76
2022/03/12 02:45:56;;;;;;;;;;;;;;;9.83;40.34;101150.13;5014723;28;20386;-75
2022/03/12 02:48:23;;;;;;;;;;;;;;;9.53;29.83;101152.19;5012991;28;19917;-75
2022/03/12 02:50:48;;;;;;;;;;;;;;;9.65;33.13;101159.84;5012313;28;19921;-80
2022/03/12 02:53:14;;;;;;;;;;;;;;;9.70;32.06;101147.66;5006492;28;20390;-80
2022/03/12 02:55:40;;;;;;;;;;;;;;;9.53;29.29;101149.59;5006770;28;19922;-80
2022/03/12 02:58:09;;;;;;;;;;;;;;;9.51;29.62;101160.00;5020399;28;19925;-76
2022/03/12 03:00:36;;;;;;;;;;;;;;;9.35;29.31;101153.22;5007709;28;20275;-80
2022/03/12 03:03:01;;;;;;;;;;;;;;;9.49;29.84;101158.25;5020689;28;20012;-80
2022/03/12 03:05:36;;;;;;;;;;;;;;;9.65;32.88;101152.91;5018901;28;20012;-80
2022/03/12 03:08:05;;;;;;;;;;;;;;;9.45;29.70;101156.59;5022575;28;20000;-80
2022/03/12 03:10:35;;;;;;;;;;;;;;;9.29;30.86;101158.47;5014596;28;19917;-80
2022/03/12 03:13:29;;;;;;;;;;;;;;;9.23;30.88;101161.13;5014740;28;20582;-79
2022/03/12 03:15:55;;;;;;;;;;;;;;;9.14;31.73;101164.66;5013680;28;20569;-80
2022/03/12 03:18:22;;;;;;;;;;;;;;;9.07;32.18;101169.88;5018541;28;19929;-80
2022/03/12 03:20:48;;;;;;;;;;;;;;;8.95;32.35;101163.06;5012713;28;19929;-80
2022/03/12 03:23:13;;;;;;;;;;;;;;;8.97;32.19;101170.84;5020327;28;19923;-80
2022/03/12 03:25:39;;;;;;;;;;;;;;;8.95;33.31;101168.25;5019354;28;19957;-80
2022/03/12 03:28:05;;;;;;;;;;;;;;;8.97;32.73;101168.25;5023207;28;20552;-80
2022/03/12 03:30:34;;;;;;;;;;;;;;;8.94;31.92;101174.34;5020224;28;20356;-80
2022/03/12 03:33:01;;;;;;;;;;;;;;;8.97;32.25;101171.72;5022084;28;19920;-76
2022/03/12 03:35:26;;;;;;;;;;;;;;;8.94;32.54;101176.06;5024710;28;19979;-80
2022/03/12 03:37:52;;;;;;;;;;;;;;;8.81;32.56;101185.66;5023469;28;19921;-80
2022/03/12 03:40:17;;;;;;;;;;;;;;;8.78;33.05;101185.66;5018338;28;19978;-80
2022/03/12 03:42:43;;;;;;;;;;;;;;;8.90;32.76;101185.59;5030858;28;19972;-80
2022/03/12 03:45:08;;;;;;;;;;;;;;;8.86;33.14;101183.03;5018285;28;20465;-79
2022/03/12 03:47:33;;;;;;;;;;;;;;;8.92;33.21;101188.19;5015697;28;19917;-80
2022/03/12 03:49:59;;;;;;;;;;;;;;;8.96;32.10;101190.72;5024396;28;20264;-79
2022/03/12 03:52:24;;;;;;;;;;;;;;;8.79;33.62;101192.56;5024899;28;20032;-79
2022/03/12 03:54:50;;;;;;;;;;;;;;;8.79;33.80;101192.56;5027620;28;20281;-80
2022/03/12 03:57:17;;;;;;;;;;;;;;;8.79;33.25;101197.75;5009778;28;19928;-80
2022/03/12 03:59:42;;;;;;;;;;;;;;;8.93;32.52;101197.66;5007431;28;19937;-80
2022/03/12 04:02:07;;;;;;;;;;;;;;;8.89;32.63;101194.22;5011139;28;19922;-80
2022/03/12 04:04:35;;;;;;;;;;;;;;;8.99;32.60;101193.28;5018969;28;20302;-80
2022/03/12 04:07:01;;;;;;;;;;;;;;;9.11;32.16;101185.41;5007274;28;20294;-80
2022/03/12 04:09:27;;;;;;;;;;;;;;;8.96;32.42;101195.91;5020953;28;19921;-79
2022/03/12 04:11:52;;;;;;;;;;;;;;;9.08;32.62;101192.34;5004720;28;19921;-75
2022/03/12 04:14:17;;;;;;;;;;;;;;;9.00;33.09;101192.44;5016770;28;19929;-76
2022/03/12 04:16:43;;;;;;;;;;;;;;;9.00;33.06;101199.34;5009749;28;19932;-76
2022/03/12 04:19:09;;;;;;;;;;;;;;;9.01;32.86;101193.28;5010682;28;19933;-80
2022/03/12 04:21:35;;;;;;;;;;;;;;;8.97;33.12;101194.19;5010989;28;20572;-79
2022/03/12 04:24:00;;;;;;;;;;;;;;;9.04;33.13;101195.84;5024100;28;19929;-79
2022/03/12 04:26:25;;;;;;;;;;;;;;;8.98;33.63;101199.34;5008204;28;19928;-75
2022/03/12 04:28:51;;;;;;;;;;;;;;;8.88;33.84;101197.69;5004344;28;19925;-76
2022/03/12 04:31:17;;;;;;;;;;;;;;;8.80;34.25;101199.47;5007902;28;19914;-80
2022/03/12 04:33:43;;;;;;;;;;;;;;;9.03;33.66;101195.00;5023404;28;19971;-80
2022/03/12 04:36:13;;;;;;;;;;;;;;;8.82;33.80;101205.50;5006553;28;19917;-79
2022/03/12 04:38:38;;;;;;;;;;;;;;;8.82;34.01;101202.91;5004975;28;19925;-80
2022/03/12 04:41:04;;;;;;;;;;;;;;;8.90;34.42;101214.09;5027853;28;19917;-79
2022/03/12 04:43:30;;;;;;;;;;;;;;;8.85;34.37;101217.56;5024426;28;19917;-80
2022/03/12 04:45:55;;;;;;;;;;;;;;;8.83;34.93;101222.75;5006114;28;19921;-80
2022/03/12 04:48:22;;;;;;;;;;;;;;;8.78;34.43;101219.34;5008043;28;19917;-80
2022/03/12 04:50:47;;;;;;;;;;;;;;;8.63;36.00;101219.44;5003772;28;19992;-79
2022/03/12 04:53:13;;;;;;;;;;;;;;;8.61;36.27;101222.06;5001723;28;19929;-80
2022/03/12 04:55:39;;;;;;;;;;;;;;;8.56;36.05;101220.34;5011988;28;19917;-80
2022/03/12 04:58:05;;;;;;;;;;;;;;;8.41;35.33;101226.47;5003129;28;20286;-80
2022/03/12 05:00:35;;;;;;;;;;;;;;;8.41;37.13;101230.78;5007437;28;19990;-80
2022/03/12 05:03:00;;;;;;;;;;;;;;;8.31;36.08;101226.47;5008025;28;20306;-79
2022/03/12 05:05:25;;;;;;;;;;;;;;;8.52;36.51;101227.28;5005633;28;19931;-75
2022/03/12 05:07:51;;;;;;;;;;;;;;;8.36;36.62;101227.34;5018202;28;19922;-79
2022/03/12 05:10:17;;;;;;;;;;;;;;;8.36;37.04;101229.94;5006713;28;19924;-79
2022/03/12 05:12:43;;;;;;;;;;;;;;;8.44;34.94;101230.78;5024149;28;20026;-80
2022/03/12 05:15:14;;;;;;;;;;;;;;;8.45;36.70;101232.47;5012350;28;19973;-80
2022/03/12 05:17:45;;;;;;;;;;;;;;;8.45;37.01;101222.13;5006262;28;19997;-80
2022/03/12 05:20:10;;;;;;;;;;;;;;;8.47;36.40;101213.50;5019729;28;19925;-80
2022/03/12 05:22:36;;;;;;;;;;;;;;;8.50;37.00;101222.97;5020788;28;20412;-80
2022/03/12 05:25:02;;;;;;;;;;;;;;;8.60;36.12;101209.97;5005675;28;19921;-80
2022/03/12 05:27:27;;;;;;;;;;;;;;;8.76;35.98;101221.09;5009832;28;19933;-79
2022/03/12 05:29:54;;;;;;;;;;;;;;;8.49;37.64;101229.00;5005176;28;20133;-80
2022/03/12 05:32:19;;;;;;;;;;;;;;;8.57;37.56;101224.66;5008803;28;19928;-80
2022/03/12 05:34:44;;;;;;;;;;;;;;;8.49;37.66;101236.78;5003200;28;20016;-79
2022/03/12 05:37:10;;;;;;;;;;;;;;;8.63;37.16;101234.97;5025033;28;19926;-79
2022/03/12 05:39:36;;;;;;;;;;;;;;;8.55;37.87;101234.16;5009544;28;19934;-75
2022/03/12 05:42:05;;;;;;;;;;;;;;;8.52;37.90;101239.34;5004196;28;19921;-75
2022/03/12 05:44:34;;;;;;;;;;;;;;;8.52;37.57;101234.19;5003798;28;20405;-75
2022/03/12 05:47:00;;;;;;;;;;;;;;;8.62;38.24;101241.88;5018137;28;20020;-76
2022/03/12 05:49:25;;;;;;;;;;;;;;;8.58;38.75;101235.00;5010114;28;20399;-75
2022/03/12 05:51:50;;;;;;;;;;;;;;;8.65;39.01;101244.44;5012690;28;19960;-75
2022/03/12 05:54:16;;;;;;;;;;;;;;;8.72;38.76;101242.69;5009680;28;20341;-75
2022/03/12 05:56:41;;;;;;;;;;;;;;;8.78;39.39;101240.94;5001350;28;19961;-75
2022/03/12 05:59:16;;;;;;;;;;;;;;;8.82;38.74;101246.97;5027495;28;19964;-75
2022/03/12 06:01:42;;;;;;;;;;;;;;;8.80;39.71;101248.69;5012525;28;19953;-79
2022/03/12 06:04:09;;;;;;;;;;;;;;;8.69;39.89;101251.34;5012568;28;20516;-79
2022/03/12 06:06:35;;;;;;;;;;;;;;;8.49;41.40;101260.09;5025079;28;19922;-79
2022/03/12 06:09:01;;;;;;;;;;;;;;;8.46;40.45;101262.69;5008651;28;19926;-79
2022/03/12 06:11:27;;;;;;;;;;;;;;;8.34;40.28;101266.19;5021486;28;21004;-79
2022/03/12 06:14:00;;;;;;;;;;;;;;;8.44;40.70;101265.31;5018062;28;19955;-79
2022/03/12 06:16:26;;;;;;;;;;;;;;;8.33;40.68;101277.41;5015600;28;20000;-79
2022/03/12 06:18:54;;;;;;;;;;;;;;;8.31;40.64;101271.34;5019257;28;20019;-79
2022/03/12 06:21:20;;;;;;;;;;;;;;;8.19;40.89;101268.78;5009334;28;19991;-75
2022/03/12 06:23:45;;;;;;;;;;;;;;;8.17;41.16;101274.00;5005358;28;20386;-75
2022/03/12 06:26:15;;;;;;;;;;;;;;;8.17;41.41;101276.59;5009681;28;19921;-80
2022/03/12 06:28:41;;;;;;;;;;;;;;;8.36;40.76;101273.94;5021379;28;20346;-79
2022/03/12 06:31:07;;;;;;;;;;;;;;;8.33;41.73;101276.50;5001401;28;19925;-79
2022/03/12 06:33:33;;;;;;;;;;;;;;;8.38;41.36;101277.41;5010904;28;19968;-76
2022/03/12 06:35:59;;;;;;;;;;;;;;;8.39;41.61;101274.78;4999908;28;20325;-76
2022/03/12 06:38:26;;;;;;;;;;;;;;;8.47;41.89;101282.53;5014086;28;19925;-80
2022/03/12 06:40:54;;;;;;;;;;;;;;;8.41;41.85;101286.03;5022495;28;19953;-80
2022/03/12 06:43:19;;;;;;;;;;;;;;;8.44;41.95;101283.41;5012567;28;20437;-80
2022/03/12 06:45:46;;;;;;;;;;;;;;;8.53;43.06;101277.34;5002400;28;20028;-79
2022/03/12 06:48:11;;;;;;;;;;;;;;;8.51;43.57;101277.34;5012586;28;19929;-75
2022/03/12 06:50:37;;;;;;;;;;;;;;;8.45;43.62;101273.91;5011690;28;19925;-75
2022/03/12 06:53:02;;;;;;;;;;;;;;;8.53;43.46;101272.16;5007263;28;19917;-75
2022/03/12 06:55:28;;;;;;;;;;;;;;;8.66;42.86;101281.56;5009924;28;19919;-75
2022/03/12 06:57:54;;;;;;;;;;;;;;;8.72;42.88;101277.22;5020482;28;19922;-75
2022/03/12 07:00:37;;;;;;;;;;;;;;;8.68;43.43;101282.44;5012190;28;19921;-75
2022/03/12 07:03:03;;;;;;;;;;;;;;;8.75;43.03;101273.75;5017270;28;20127;-79
2022/03/12 07:05:28;;;;;;;;;;;;;;;8.69;43.16;101282.41;5022611;28;19921;-76
2022/03/12 07:07:54;;;;;;;;;;;;;;;8.72;43.52;101285.00;5015430;28;19976;-75
2022/03/12 07:10:20;;;;;;;;;;;;;;;8.78;43.29;101287.56;5012641;28;19949;-80
2022/03/12 07:12:46;;;;;;;;;;;;;;;8.77;43.15;101283.22;5014014;28;19934;-80
2022/03/12 07:15:12;;;;;;;;;;;;;;;8.72;43.64;101287.59;5013737;28;20030;-80
2022/03/12 07:17:38;;;;;;;;;;;;;;;8.84;43.76;101296.16;5011231;28;19961;-80
2022/03/12 07:20:04;;;;;;;;;;;;;;;8.84;43.95;101297.03;5016489;28;19928;-80
2022/03/12 07:22:30;;;;;;;;;;;;;;;8.81;44.30;101297.03;5006935;28;19960;-80
2022/03/12 07:24:55;;;;;;;;;;;;;;;8.85;44.29;101303.94;5013101;28;19921;-75
2022/03/12 07:27:21;;;;;;;;;;;;;;;8.77;44.44;101301.38;5008440;28;19917;-75
2022/03/12 07:29:46;;;;;;;;;;;;;;;8.87;43.25;101297.00;5010780;28;20420;-75
2022/03/12 07:32:11;;;;;;;;;;;;;;;8.99;43.70;101298.66;5013960;28;19928;-81
2022/03/12 07:34:37;;;;;;;;;;;;;;;9.12;43.00;101298.59;5014294;28;19922;-80
2022/03/12 07:37:02;;;;;;;;;;;;;;;9.11;43.19;101298.59;5011628;28;19972;-80
2022/03/12 07:39:28;;;;;;;;;;;;;;;9.15;43.93;101295.13;5016343;28;19921;-79
2022/03/12 07:41:53;;;;;;;;;;;;;;;9.27;44.36;101302.81;5010916;28;20001;-80
2022/03/12 07:44:19;;;;;;;;;;;;;;;9.18;43.89;101311.50;5027239;28;19991;-80
2022/03/12 07:46:45;;;;;;;;;;;;;;;9.38;43.67;101302.72;5017013;28;20016;-80
2022/03/12 07:49:11;;;;;;;;;;;;;;;9.33;44.00;101316.56;5011234;28;19925;-80
2022/03/12 07:51:36;;;;;;;;;;;;;;;9.28;44.32;101307.97;5011728;28;20405;-79
2022/03/12 07:54:04;;;;;;;;;;;;;;;9.38;44.20;101313.94;5013535;28;19972;-79
2022/03/12 07:56:29;;;;;;;;;;;;;;;9.39;44.17;101315.69;5012897;28;19964;-79
2022/03/12 07:58:55;;;;;;;;;;;;;;;9.27;45.12;101315.78;5019655;28;19960;-80
2022/03/12 08:01:20;;;;;;;;;;;;;;;9.40;44.51;101319.97;5025911;28;19922;-80
2022/03/12 08:03:46;;;;;;;;;;;;;;;9.39;44.83;101312.22;5014196;28;19921;-79
2022/03/12 08:06:13;;;;;;;;;;;;;;;9.16;45.09;101312.38;5010840;28;19929;-79
2022/03/12 08:08:38;;;;;;;;;;;;;;;9.32;45.42;101320.03;5011302;28;19922;-80
2022/03/12 08:13:48;;;;;;;;;;;;;;;9.35;45.17;101322.63;5007417;28;19929;-80
2022/03/12 08:16:13;;;;;;;;;;;;;;;9.47;45.03;101326.84;5009369;28;19980;-80
2022/03/12 08:18:42;;;;;;;;;;;;;;;9.53;45.32;101324.22;5016192;28;19925;-80
2022/03/12 08:21:08;;;;;;;;;;;;;;;9.51;45.70;101327.69;5014726;28;20601;-75
2022/03/12 08:23:34;;;;;;;;;;;;;;;9.77;46.82;101325.75;5027399;28;19956;-80
2022/03/12 08:26:00;;;;;;;;;;;;;;;9.57;45.57;101332.84;5018828;28;19913;-80
2022/03/12 08:28:26;;;;;;;;;;;;;;;9.53;46.09;101338.91;5007352;28;20083;-75
2022/03/12 08:30:51;;;;;;;;;;;;;;;9.64;45.51;101339.69;5008985;28;20282;-75
2022/03/12 08:33:19;;;;;;;;;;;;;;;9.71;45.42;101341.34;5001610;28;20012;-75
2022/03/12 08:35:44;;;;;;;;;;;;;;;9.80;46.52;101336.97;5007103;28;19927;-75
2022/03/12 08:38:09;;;;;;;;;;;;;;;9.69;46.25;101337.94;5015989;28;20348;-75
2022/03/12 08:40:35;;;;;;;;;;;;;;;9.64;46.85;101337.94;5005872;28;20393;-80
2022/03/12 08:43:00;;;;;;;;;;;;;;;9.72;46.46;101341.34;5014364;28;19921;-80
2022/03/12 08:45:26;;;;;;;;;;;;;;;9.71;46.71;101338.75;5012590;28;19971;-79
2022/03/12 08:47:51;;;;;;;;;;;;;;;9.79;46.86;101342.16;5012535;28;19918;-80
2022/03/12 08:50:16;;;;;;;;;;;;;;;9.78;47.67;101346.47;5016907;28;19917;-80
2022/03/12 08:52:42;;;;;;;;;;;;;;;9.78;48.26;101349.06;5007984;28;19917;-80
2022/03/12 08:55:08;;;;;;;;;;;;;;;9.83;48.77;101355.09;5031168;28;19929;-80
2022/03/12 08:57:34;;;;;;;;;;;;;;;9.87;48.98;101353.31;5013326;28;19918;-75
2022/03/12 09:00:00;;;;;;;;;;;;;;;9.93;48.93;101347.25;5028408;28;19924;-75
2022/03/12 09:02:28;;;;;;;;;;;;;;;9.96;48.95;101347.25;5011662;28;19993;-79
2022/03/12 09:04:53;;;;;;;;;;;;;;;10.09;49.40;101360.06;5020265;28;20349;-79
2022/03/12 09:07:19;;;;;;;;;;;;;;;9.99;48.88;101360.19;5007007;28;19928;-79
2022/03/12 09:09:44;;;;;;;;;;;;;;;10.10;48.81;101366.13;5002984;28;19949;-79
2022/03/12 09:12:10;;;;;;;;;;;;;;;10.06;48.96;101361.84;5015296;28;20389;-75
2022/03/12 09:14:35;;;;;;;;;;;;;;;10.07;49.35;101366.16;5015180;28;20291;-79
2022/03/12 09:17:02;;;;;;;;;;;;;;;9.89;50.06;101368.06;5010561;28;20523;-75
2022/03/12 09:19:27;;;;;;;;;;;;;;;10.10;49.87;101373.91;5013692;28;19929;-75
2022/03/12 09:21:52;;;;;;;;;;;;;;;9.79;51.97;101376.75;5008130;28;19933;-79
2022/03/12 09:24:18;;;;;;;;;;;;;;;9.96;52.27;101368.00;5016596;28;19949;-79
2022/03/12 09:26:43;;;;;;;;;;;;;;;10.12;51.63;101375.63;5025190;28;19971;-79
2022/03/12 09:29:08;;;;;;;;;;;;;;;10.04;53.00;101380.03;5010338;28;19928;-79
2022/03/12 09:31:34;;;;;;;;;;;;;;;10.07;53.21;101376.53;5026128;28;20121;-79
2022/03/12 09:34:02;;;;;;;;;;;;;;;10.15;52.95;101373.00;5005429;28;19932;-75
2022/03/12 09:36:28;;;;;;;;;;;;;;;10.16;53.25;101385.13;5004378;28;19921;-75
2022/03/12 09:38:53;;;;;;;;;;;;;;;10.30;52.52;101369.38;5010838;28;20594;-79
2022/03/12 09:41:18;;;;;;;;;;;;;;;10.26;53.04;101372.88;5009220;28;19921;-79
2022/03/12 09:43:44;;;;;;;;;;;;;;;10.33;52.78;101367.63;5008792;28;19917;-79
2022/03/12 09:46:09;;;;;;;;;;;;;;;10.36;53.05;101374.50;5010395;28;19921;-80
2022/03/12 09:48:35;;;;;;;;;;;;;;;10.40;52.74;101377.06;5006901;28;19922;-80
2022/03/12 09:51:01;;;;;;;;;;;;;;;10.31;52.96;101369.38;5009472;28;19921;-79
2022/03/12 09:53:27;;;;;;;;;;;;;;;10.41;52.87;101373.59;5008411;28;19921;-79
2022/03/12 09:55:52;;;;;;;;;;;;;;;10.45;52.10;101371.81;5004077;28;19976;-79
2022/03/12 09:58:18;;;;;;;;;;;;;;;10.49;51.88;101375.25;5023765;28;19941;-80
2022/03/12 10:00:44;;;;;;;;;;;;;;;10.46;52.25;101376.16;5016712;28;19922;-79
2022/03/12 10:03:10;;;;;;;;;;;;;;;10.41;52.60;101373.59;5008835;28;19928;-79
2022/03/12 10:05:35;;;;;;;;;;;;;;;10.43;52.73;101371.81;5004646;28;19980;-75
2022/03/12 10:08:00;;;;;;;;;;;;;;;10.43;53.22;101356.25;5008060;28;19960;-75
2022/03/12 10:10:26;;;;;;;;;;;;;;;10.44;52.99;101359.69;5006552;28;19928;-80
2022/03/12 10:12:51;;;;;;;;;;;;;;;10.39;53.50;101362.38;5016750;28;19944;-79
2022/03/12 10:15:17;;;;;;;;;;;;;;;10.48;53.11;101364.00;5023974;28;19993;-75
2022/03/12 10:17:44;;;;;;;;;;;;;;;10.44;53.91;101363.16;5026501;28;19925;-75
2022/03/12 10:20:11;;;;;;;;;;;;;;;10.44;53.46;101362.28;5012196;28;20300;-79
2022/03/12 10:22:37;;;;;;;;;;;;;;;10.49;53.00;101363.13;5010060;28;19910;-79
2022/03/12 10:25:02;;;;;;;;;;;;;;;10.45;53.32;101359.69;5010209;28;20595;-79
2022/03/12 10:27:28;;;;;;;;;;;;;;;10.56;53.16;101366.50;5001819;28;19926;-75
2022/03/12 10:29:53;;;;;;;;;;;;;;;10.61;52.80;101362.97;5007490;28;20408;-79
2022/03/12 10:32:20;;;;;;;;;;;;;;;10.58;53.36;101368.22;5009670;28;20005;-80
2022/03/12 10:34:56;;;;;;;;;;;;;;;10.55;53.52;101362.19;5000678;28;19917;-79
2022/03/12 10:37:25;;;;;;;;;;;;;;;10.55;52.97;101367.41;5029226;28;19924;-79
2022/03/12 10:40:03;;;;;;;;;;;;;;;10.64;52.80;101359.50;5008497;28;19926;-79
2022/03/12 10:42:30;;;;;;;;;;;;;;;10.70;52.74;101362.84;5007948;28;19979;-79
2022/03/12 10:45:03;;;;;;;;;;;;;;;10.66;52.61;101363.78;5001932;28;19929;-79
2022/03/12 10:47:28;;;;;;;;;;;;;;;10.84;51.53;101360.09;5003436;28;19929;-75
2022/03/12 10:49:58;;;;;;;;;;;;;;;10.87;51.47;101354.88;5003956;28;19918;-79
2022/03/12 10:52:27;;;;;;;;;;;;;;;10.98;51.02;101363.38;5009219;28;19964;-75
2022/03/12 10:54:53;;;;;;;;;;;;;;;10.96;52.29;101350.41;5007866;28;20411;-79
2022/03/12 10:57:19;;;;;;;;;;;;;;;10.95;51.51;101355.63;5008154;28;19926;-79
2022/03/12 10:59:45;;;;;;;;;;;;;;;10.97;51.34;101349.50;5007599;28;19925;-79
2022/03/12 11:02:10;;;;;;;;;;;;;;;11.15;50.50;101353.59;5009490;28;19929;-79
2022/03/12 11:04:36;;;;;;;;;;;;;;;11.15;51.23;101345.81;5021177;28;19925;-79
2022/03/12 11:07:24;;;;;;;;;;;;;;;11.07;51.02;101346.78;5008550;28;19925;-75
2022/03/12 11:09:50;;;;;;;;;;;;;;;11.21;50.60;101342.25;5004362;28;19921;-79
2022/03/12 11:12:30;;;;;;;;;;;;;;;11.16;50.96;101341.47;5006842;28;19925;-80
2022/03/12 11:15:05;;;;;;;;;;;;;;;11.22;50.50;101337.03;5004123;28;19929;-79
2022/03/12 11:17:43;;;;;;;;;;;;;;;11.20;50.93;101331.00;5009721;28;19922;-81
2022/03/12 11:20:17;;;;;;;;;;;;;;;11.27;49.81;101343.03;5011919;28;19920;-79
2022/03/12 11:22:42;;;;;;;;;;;;;;;11.30;49.37;101332.59;5013818;28;19922;-80
2022/03/12 11:25:11;;;;;;;;;;;;;;;11.22;49.87;101334.44;5013567;28;19943;-79
2022/03/12 11:27:36;;;;;;;;;;;;;;;11.24;49.48;101324.00;5008867;28;20666;-80
2022/03/12 11:30:08;;;;;;;;;;;;;;;11.28;47.76;101329.19;5010391;28;19925;-80
2022/03/12 11:32:36;;;;;;;;;;;;;;;11.21;49.67;101331.84;5004556;28;19917;-79
2022/03/12 11:35:11;;;;;;;;;;;;;;;11.32;49.13;101327.41;5006927;28;19921;-79
2022/03/12 11:37:38;;;;;;;;;;;;;;;11.30;49.04;101326.53;5017076;28;19943;-80
2022/03/12 11:40:09;;;;;;;;;;;;;;;11.40;49.46;101328.13;5014502;28;19979;-79
2022/03/12 11:42:36;;;;;;;;;;;;;;;11.38;48.96;101327.31;5012994;28;20409;-76
2022/03/12 11:45:04;;;;;;;;;;;;;;;11.40;49.74;101320.34;5015209;28;19922;-80
2022/03/12 11:47:34;;;;;;;;;;;;;;;11.43;50.15;101328.09;5013991;28;19921;-80
2022/03/12 11:50:03;;;;;;;;;;;;;;;11.44;50.06;101316.81;5012397;28;19913;-79
2022/03/12 11:52:29;;;;;;;;;;;;;;;11.47;50.27;101321.97;5015096;28;19994;-79
2022/03/12 11:54:56;;;;;;;;;;;;;;;11.42;49.11;101314.22;5005725;28;19977;-79
2022/03/12 11:57:21;;;;;;;;;;;;;;;11.38;49.64;101309.94;5008434;28;19950;-80
2022/03/12 11:59:46;;;;;;;;;;;;;;;11.45;49.64;101311.56;5012025;28;19933;-79
2022/03/12 12:02:18;;;;;;;;;;;;;;;11.46;49.97;101312.44;5007539;28;19953;-79
2022/03/12 12:04:43;;;;;;;;;;;;;;;11.48;50.10;101311.53;5020364;28;20023;-80
2022/03/12 12:07:09;;;;;;;;;;;;;;;11.42;50.18;101311.63;5020801;28;20338;-79
2022/03/12 12:09:34;;;;;;;;;;;;;;;11.49;49.65;101315.00;5009848;28;19937;-79
2022/03/12 12:12:06;;;;;;;;;;;;;;;11.51;48.87;101315.81;5008536;28;19921;-80
2022/03/12 12:14:32;;;;;;;;;;;;;;;11.55;48.96;101312.28;5024945;28;19922;-76
2022/03/12 12:16:58;;;;;;;;;;;;;;;11.52;47.96;101300.19;5011163;28;19922;-79
2022/03/12 12:19:24;;;;;;;;;;;;;;;11.59;49.11;101302.69;5012157;28;19934;-80
2022/03/12 12:21:49;;;;;;;;;;;;;;;11.65;48.62;101307.78;5010223;28;19964;-79
2022/03/12 12:24:31;;;;;;;;;;;;;;;11.74;48.43;101305.03;5009282;28;19965;-79
2022/03/12 12:26:56;;;;;;;;;;;;;;;11.64;48.23;101303.47;5011594;28;19929;-79
2022/03/12 12:29:54;;;;;;;;;;;;;;;11.64;49.50;101300.88;5010993;28;19921;-80
2022/03/12 12:32:25;;;;;;;;;;;;;;;11.66;47.77;101294.75;5021796;28;19921;-79
2022/03/12 12:35:05;;;;;;;;;;;;;;;11.69;49.00;101293.81;5005981;28;19989;-79
2022/03/12 12:37:43;;;;;;;;;;;;;;;11.83;49.00;101294.47;5011671;28;20004;-80
2022/03/12 12:40:12;;;;;;;;;;;;;;;11.75;49.17;101286.78;5013588;28;20019;-80
2022/03/12 12:42:42;;;;;;;;;;;;;;;11.72;49.43;101292.03;5009903;28;19951;-80
2022/03/12 12:45:11;;;;;;;;;;;;;;;11.70;49.37;101286.00;5011845;28;19921;-75